createdAt,value
2018-12-22T00:00:08.194Z,3.25
2018-12-22T00:02:34.968Z,2.98
2018-12-22T00:05:01.720Z,3.00
2018-12-22T00:07:28.429Z,2.80
2018-12-22T00:09:55.141Z,3.15
2018-12-22T00:12:21.892Z,2.65
2018-12-22T00:14:48.621Z,2.80
2018-12-22T00:17:15.327Z,2.47
2018-12-22T00:19:42.099Z,2.95
2018-12-22T00:22:08.845Z,2.98
2018-12-22T00:24:35.552Z,2.70
2018-12-22T00:27:02.311Z,2.55
2018-12-22T00:29:29.025Z,2.50
2018-12-22T00:31:55.745Z,3.10
2018-12-22T00:34:22.508Z,2.77
2018-12-22T00:36:49.223Z,2.80
2018-12-22T00:39:15.932Z,3.05
2018-12-22T00:41:42.711Z,3.02
2018-12-22T00:44:09.468Z,3.67
2018-12-22T00:46:36.234Z,2.37
2018-12-22T00:49:02.940Z,2.60
2018-12-22T00:51:30.695Z,2.70
2018-12-22T00:53:57.409Z,2.50
2018-12-22T00:56:24.142Z,2.40
2018-12-22T00:58:50.860Z,2.45
2018-12-22T01:01:17.625Z,2.15
2018-12-22T01:03:44.361Z,2.55
2018-12-22T01:06:11.064Z,1.92
2018-12-22T01:08:37.820Z,2.45
2018-12-22T01:11:04.556Z,2.40
2018-12-22T01:13:31.268Z,2.90
2018-12-22T01:15:58.024Z,3.05
2018-12-22T01:18:24.738Z,2.95
2018-12-22T01:20:51.443Z,3.10
2018-12-22T01:23:18.188Z,3.17
2018-12-22T01:25:44.897Z,3.37
2018-12-22T01:28:11.625Z,2.80
2018-12-22T01:30:38.369Z,3.05
2018-12-22T01:33:05.081Z,3.40
2018-12-22T01:35:31.795Z,2.30
2018-12-22T01:37:58.964Z,2.70
2018-12-22T01:40:25.672Z,2.52
2018-12-22T01:42:52.454Z,2.45
2018-12-22T01:45:19.252Z,2.30
2018-12-22T01:47:45.967Z,2.20
2018-12-22T01:50:12.784Z,2.42
2018-12-22T01:52:39.483Z,2.33
2018-12-22T01:55:06.836Z,2.40
2018-12-22T01:57:33.555Z,2.40
2018-12-22T02:00:00.277Z,2.60
2018-12-22T02:02:27.016Z,2.10
2018-12-22T02:04:53.733Z,3.22
2018-12-22T02:07:20.500Z,2.67
2018-12-22T02:09:47.225Z,3.12
2018-12-22T02:12:13.937Z,4.33
2018-12-22T02:14:40.715Z,3.65
2018-12-22T02:17:07.412Z,3.77
2018-12-22T02:19:34.133Z,3.83
2018-12-22T02:22:00.839Z,3.67
2018-12-22T02:24:27.582Z,3.92
2018-12-22T02:26:54.356Z,3.70
2018-12-22T02:29:21.071Z,3.40
2018-12-22T02:31:47.805Z,3.87
2018-12-22T02:34:14.546Z,4.00
2018-12-22T02:36:41.276Z,3.98
2018-12-22T02:39:08.004Z,4.20
2018-12-22T02:41:34.727Z,3.98
2018-12-22T02:44:01.449Z,3.87
2018-12-22T02:46:28.220Z,3.62
2018-12-22T02:48:54.945Z,3.80
2018-12-22T02:51:21.644Z,3.67
2018-12-22T02:53:48.371Z,3.87
2018-12-22T02:56:15.089Z,3.85
2018-12-22T02:58:41.802Z,3.90
2018-12-22T03:01:08.553Z,3.17
2018-12-22T03:03:35.399Z,3.42
2018-12-22T03:06:02.111Z,3.95
2018-12-22T03:08:28.849Z,4.03
2018-12-22T03:10:55.557Z,3.52
2018-12-22T03:13:22.294Z,3.87
2018-12-22T03:15:49.011Z,3.85
2018-12-22T03:18:15.785Z,3.60
2018-12-22T03:20:42.497Z,3.50
2018-12-22T03:23:09.204Z,3.62
2018-12-22T03:25:36.045Z,4.55
2018-12-22T03:28:02.788Z,3.60
2018-12-22T03:30:29.610Z,3.70
2018-12-22T03:32:56.365Z,2.90
2018-12-22T03:35:23.105Z,3.37
2018-12-22T03:37:49.812Z,3.22
2018-12-22T03:40:16.522Z,3.45
2018-12-22T03:42:43.279Z,3.55
2018-12-22T03:45:09.993Z,3.35
2018-12-22T03:47:36.702Z,4.08
2018-12-22T03:50:04.015Z,3.30
2018-12-22T03:52:30.727Z,3.92
2018-12-22T03:54:57.437Z,4.08
2018-12-22T03:57:24.224Z,3.60
2018-12-22T03:59:50.946Z,3.92
2018-12-22T04:02:17.760Z,3.83
2018-12-22T04:04:44.473Z,3.17
2018-12-22T04:07:11.181Z,3.05
2018-12-22T04:09:37.908Z,3.05
2018-12-22T04:12:04.714Z,3.50
2018-12-22T04:14:31.419Z,3.80
2018-12-22T04:16:58.133Z,3.58
2018-12-22T04:19:24.886Z,3.70
2018-12-22T04:21:51.597Z,3.77
2018-12-22T04:24:18.311Z,3.80
2018-12-22T04:26:45.057Z,4.33
2018-12-22T04:29:11.767Z,3.77
2018-12-22T04:31:38.497Z,4.28
2018-12-22T04:34:05.224Z,5.65
2018-12-22T04:36:31.938Z,4.53
2018-12-22T04:38:58.663Z,4.90
2018-12-22T04:41:25.377Z,5.20
2018-12-22T04:43:52.120Z,4.90
2018-12-22T04:46:18.828Z,5.60
2018-12-22T04:48:45.533Z,5.87
2018-12-22T04:51:12.274Z,6.42
2018-12-22T04:53:38.985Z,5.60
2018-12-22T04:56:05.734Z,6.05
2018-12-22T04:58:32.448Z,5.65
2018-12-22T05:00:59.156Z,5.70
2018-12-22T05:03:25.909Z,6.70
2018-12-22T05:05:52.608Z,6.45
2018-12-22T05:08:19.320Z,6.40
2018-12-22T05:10:46.071Z,7.70
2018-12-22T05:13:12.955Z,7.20
2018-12-22T05:15:39.663Z,6.60
2018-12-22T05:18:06.404Z,7.33
2018-12-22T05:20:33.126Z,9.28
2018-12-22T05:22:59.838Z,9.50
2018-12-22T05:25:26.575Z,9.03
2018-12-22T05:27:53.288Z,9.88
2018-12-22T05:30:20.003Z,9.70
2018-12-22T05:32:46.726Z,8.88
2018-12-22T05:35:13.511Z,9.73
2018-12-22T05:37:40.221Z,10.55
2018-12-22T05:40:06.927Z,10.18
2018-12-22T05:42:33.663Z,9.75
2018-12-22T05:45:00.367Z,9.85
2018-12-22T05:47:27.101Z,11.40
2018-12-22T05:49:54.363Z,10.90
2018-12-22T05:52:21.111Z,12.10
2018-12-22T05:54:47.825Z,12.25
2018-12-22T05:57:14.537Z,11.93
2018-12-22T05:59:41.290Z,11.50
2018-12-22T06:02:08.004Z,13.28
2018-12-22T06:04:34.782Z,13.08
2018-12-22T06:07:01.524Z,12.50
2018-12-22T06:09:28.251Z,13.85
2018-12-22T06:11:54.988Z,14.10
2018-12-22T06:14:21.738Z,13.43
2018-12-22T06:16:48.456Z,12.55
2018-12-22T06:19:15.172Z,15.20
2018-12-22T06:21:41.909Z,15.28
2018-12-22T06:24:08.632Z,14.83
2018-12-22T06:26:35.367Z,15.00
2018-12-22T06:29:02.128Z,14.90
2018-12-22T06:31:28.881Z,15.08
2018-12-22T06:33:55.592Z,15.70
2018-12-22T06:36:22.316Z,15.15
2018-12-22T06:38:49.052Z,15.23
2018-12-22T06:41:15.792Z,17.75
2018-12-22T06:43:42.518Z,17.12
2018-12-22T06:46:09.254Z,17.45
2018-12-22T06:48:36.000Z,17.05
2018-12-22T06:51:02.805Z,18.20
2018-12-22T06:53:29.528Z,18.55
2018-12-22T06:55:56.249Z,18.87
2018-12-22T06:58:24.818Z,18.65
2018-12-22T07:00:51.534Z,18.10
2018-12-22T07:03:18.304Z,17.87
2018-12-22T07:05:45.038Z,18.85
2018-12-22T07:08:11.756Z,17.37
2018-12-22T07:10:38.514Z,18.17
2018-12-22T07:13:05.227Z,17.10
2018-12-22T07:15:31.960Z,17.55
2018-12-22T07:17:58.706Z,16.37
2018-12-22T07:20:25.522Z,19.45
2018-12-22T07:22:52.284Z,14.78
2018-12-22T07:25:19.157Z,16.55
2018-12-22T07:27:47.414Z,16.15
2018-12-22T07:30:15.717Z,12.93
2018-12-22T07:32:44.028Z,13.25
2018-12-22T07:35:12.089Z,12.95
2018-12-22T07:37:39.596Z,12.40
2018-12-22T07:40:07.034Z,13.25
2018-12-22T07:42:35.212Z,11.03
2018-12-22T07:45:02.472Z,10.82
2018-12-22T07:47:29.265Z,10.78
2018-12-22T07:49:56.012Z,10.28
2018-12-22T07:52:22.797Z,9.60
2018-12-22T08:00:54.494Z,9.98
2018-12-22T08:03:22.347Z,12.70
2018-12-22T08:05:51.379Z,11.95
2018-12-22T08:08:19.668Z,11.63
2018-12-22T08:10:47.196Z,11.43
2018-12-22T08:13:15.356Z,10.65
2018-12-22T08:15:43.639Z,11.73
2018-12-22T08:18:11.264Z,10.32
2018-12-22T08:20:38.587Z,11.53
2018-12-22T08:23:06.155Z,11.00
2018-12-22T08:25:33.567Z,10.75
2018-12-22T08:28:01.509Z,9.85
2018-12-22T08:30:29.373Z,10.08
2018-12-22T08:32:58.731Z,11.30
2018-12-22T08:35:26.888Z,10.30
2018-12-22T08:37:54.800Z,12.85
2018-12-22T08:40:21.651Z,10.88
2018-12-22T08:42:48.669Z,12.60
2018-12-22T08:45:15.776Z,12.60
2018-12-22T08:47:43.825Z,11.90
2018-12-22T08:50:10.859Z,11.57
2018-12-22T08:52:38.028Z,11.78
2018-12-22T08:55:06.630Z,11.05
2018-12-22T08:57:33.908Z,11.70
2018-12-22T09:00:01.864Z,11.18
2018-12-22T12:01:07.268Z,2.35
2018-12-22T12:03:35.831Z,2.62
2018-12-22T12:06:02.577Z,2.35
2018-12-22T12:08:29.303Z,2.50
2018-12-22T12:10:56.011Z,2.47
2018-12-22T12:13:22.723Z,2.75
2018-12-22T12:15:49.617Z,3.00
2018-12-22T12:18:18.282Z,2.75
2018-12-22T12:20:45.016Z,2.90
2018-12-22T12:23:11.718Z,2.40
2018-12-22T12:25:38.417Z,2.40
2018-12-22T12:28:05.164Z,2.50
2018-12-22T12:30:31.868Z,2.50
2018-12-22T12:32:58.723Z,2.72
2018-12-22T12:35:25.437Z,3.42
2018-12-22T12:37:52.134Z,2.83
2018-12-22T12:40:18.889Z,3.05
2018-12-22T12:42:45.597Z,3.50
2018-12-22T12:45:13.269Z,3.25
2018-12-22T12:47:40.424Z,2.90
2018-12-22T12:50:09.146Z,13.72
2018-12-22T12:52:35.860Z,2.72
2018-12-22T12:55:03.168Z,2.72
2018-12-22T12:57:29.904Z,2.75
2018-12-22T12:59:56.606Z,2.60
2018-12-22T13:02:23.308Z,2.65
2018-12-22T13:04:50.048Z,2.60
2018-12-22T13:07:16.748Z,6.37
2018-12-22T13:09:43.460Z,3.05
2018-12-22T13:12:10.268Z,2.98
2018-12-22T13:14:36.973Z,2.83
2018-12-22T13:17:03.681Z,3.02
2018-12-22T13:19:30.407Z,2.65
2018-12-22T13:21:57.101Z,2.67
2018-12-22T13:24:23.842Z,2.90
2018-12-22T13:26:50.549Z,4.03
2018-12-22T13:29:17.248Z,2.45
2018-12-22T13:31:44.037Z,2.42
2018-12-22T13:34:10.751Z,2.58
2018-12-22T13:36:37.476Z,2.50
2018-12-22T13:39:04.627Z,2.70
2018-12-22T13:41:31.330Z,2.80
2018-12-22T13:43:58.059Z,3.00
2018-12-22T13:46:24.764Z,2.90
2018-12-22T13:48:51.486Z,2.98
2018-12-22T13:51:18.460Z,2.65
2018-12-22T13:53:45.375Z,3.05
2018-12-22T13:56:12.555Z,3.20
2018-12-22T13:58:39.305Z,3.37
2018-12-22T14:01:06.094Z,4.35
2018-12-22T14:03:32.860Z,4.12
2018-12-22T14:05:59.678Z,3.50
2018-12-22T14:08:26.444Z,3.80
2018-12-22T14:10:53.443Z,4.45
2018-12-22T14:13:20.294Z,4.65
2018-12-22T14:15:49.764Z,4.20
2018-12-22T14:18:18.644Z,4.95
2018-12-22T14:20:45.339Z,5.83
2018-12-22T14:23:13.033Z,5.78
2018-12-22T14:25:39.804Z,6.45
2018-12-22T14:28:06.508Z,7.12
2018-12-22T14:30:33.219Z,6.62
2018-12-22T14:32:59.968Z,6.55
2018-12-22T14:35:28.873Z,7.92
2018-12-22T14:37:55.577Z,7.00
2018-12-22T14:40:22.305Z,7.08
2018-12-22T14:42:49.027Z,7.58
2018-12-22T14:45:15.749Z,7.12
2018-12-22T14:47:42.453Z,7.50
2018-12-22T14:50:12.793Z,7.00
2018-12-22T14:52:39.496Z,7.47
2018-12-22T14:55:07.762Z,8.58
2018-12-22T14:57:35.132Z,7.15
2018-12-22T15:00:02.341Z,7.35
2018-12-22T15:02:35.268Z,6.42
2018-12-22T15:04:57.779Z,6.28
2018-12-22T15:07:24.526Z,6.78
2018-12-22T15:09:51.229Z,6.78
2018-12-22T15:12:17.932Z,6.20
2018-12-22T15:14:44.680Z,7.50
2018-12-22T15:17:11.384Z,8.20
2018-12-22T15:19:38.091Z,6.90
2018-12-22T15:22:06.546Z,6.72
2018-12-22T15:24:33.516Z,7.15
2018-12-22T15:27:00.213Z,6.50
2018-12-22T15:29:26.935Z,7.42
2018-12-22T15:31:53.642Z,6.55
2018-12-22T15:34:20.387Z,6.15
2018-12-22T15:36:47.089Z,5.90
2018-12-22T15:39:13.793Z,4.62
2018-12-22T15:41:40.553Z,5.50
2018-12-22T15:44:07.265Z,5.45
2018-12-22T15:46:33.963Z,4.53
2018-12-22T15:49:00.689Z,4.95
2018-12-22T15:51:27.476Z,4.58
2018-12-22T15:53:54.177Z,4.10
2018-12-22T15:56:20.912Z,4.97
2018-12-22T15:58:47.627Z,4.25
2018-12-22T16:01:14.403Z,3.80
2018-12-22T16:03:41.101Z,4.00
2018-12-22T16:06:07.948Z,4.55
2018-12-22T16:08:34.691Z,3.87
2018-12-22T16:11:01.395Z,3.52
2018-12-22T16:13:28.138Z,4.22
2018-12-22T16:15:54.964Z,3.50
2018-12-22T16:18:21.680Z,4.08
2018-12-22T16:20:48.408Z,4.28
2018-12-22T16:23:15.161Z,4.30
2018-12-22T16:25:41.933Z,3.90
2018-12-22T16:28:08.631Z,4.33
2018-12-22T16:30:38.212Z,4.65
2018-12-22T16:33:04.914Z,4.50
2018-12-22T16:35:31.620Z,4.62
2018-12-22T16:37:58.341Z,5.15
2018-12-22T16:40:25.061Z,5.55
2018-12-22T16:42:51.854Z,6.50
2018-12-22T16:45:18.577Z,6.20
2018-12-22T16:47:45.280Z,6.60
2018-12-22T16:50:13.265Z,6.37
2018-12-22T16:52:40.017Z,5.80
2018-12-22T16:55:08.481Z,6.25
2018-12-22T16:57:35.352Z,6.45
2018-12-22T17:00:02.414Z,5.80
2018-12-22T17:02:29.209Z,6.65
2018-12-22T17:04:55.912Z,6.78
2018-12-22T17:07:22.668Z,6.20
2018-12-22T17:09:49.510Z,6.00
2018-12-22T17:12:17.014Z,4.92
2018-12-22T17:14:43.796Z,6.22
2018-12-22T17:17:10.532Z,5.80
2018-12-22T17:19:37.260Z,5.42
2018-12-22T17:22:03.956Z,6.17
2018-12-22T17:24:30.678Z,4.70
2018-12-22T17:26:58.605Z,4.37
2018-12-22T17:29:25.648Z,4.47
2018-12-22T17:31:52.343Z,4.58
2018-12-22T17:34:19.076Z,4.85
2018-12-22T17:36:45.775Z,4.30
2018-12-22T17:39:12.486Z,4.37
2018-12-22T17:41:39.229Z,4.30
2018-12-22T17:44:05.928Z,4.35
2018-12-22T17:46:32.638Z,4.03
2018-12-22T17:48:59.364Z,3.67
2018-12-22T17:51:26.127Z,4.53
2018-12-22T17:53:52.876Z,4.22
2018-12-22T17:56:19.575Z,4.40
2018-12-22T17:58:46.300Z,4.00
2018-12-22T18:01:13.057Z,5.12
2018-12-22T18:03:39.761Z,4.67
2018-12-22T18:06:07.061Z,4.10
2018-12-22T18:08:33.868Z,6.37
2018-12-22T18:11:01.238Z,4.85
2018-12-22T18:13:28.196Z,5.17
2018-12-22T18:15:55.922Z,4.25
2018-12-22T18:18:22.632Z,5.03
2018-12-22T18:20:49.378Z,3.95
2018-12-22T18:23:16.975Z,5.08
2018-12-22T18:38:02.100Z,5.47
2018-12-22T18:40:28.851Z,5.92
2018-12-22T18:42:55.600Z,5.00
2018-12-22T18:45:22.316Z,5.30
2018-12-22T18:47:49.023Z,5.95
2018-12-22T18:50:17.360Z,5.10
2018-12-22T18:52:44.091Z,6.10
2018-12-22T18:55:10.823Z,6.35
2018-12-22T18:57:37.920Z,6.85
2018-12-22T19:00:14.881Z,5.72
2018-12-22T19:02:41.627Z,5.80
2018-12-22T19:05:08.704Z,6.37
2018-12-22T19:07:35.423Z,5.92
2018-12-22T19:10:02.164Z,6.67
2018-12-22T19:12:28.925Z,5.72
2018-12-22T19:14:57.200Z,6.05
2018-12-22T19:17:26.391Z,5.50
2018-12-22T19:19:53.204Z,6.78
2018-12-22T19:22:22.639Z,6.10
2018-12-22T19:24:50.671Z,6.25
2018-12-22T19:27:19.381Z,7.25
2018-12-22T19:29:47.890Z,6.65
2018-12-22T19:32:15.946Z,5.92
2018-12-22T19:34:43.334Z,6.45
2018-12-22T19:37:11.917Z,5.55
2018-12-22T19:39:40.196Z,6.47
2018-12-22T19:42:08.752Z,6.00
2018-12-22T19:44:36.577Z,5.72
2018-12-22T19:47:05.418Z,6.22
2018-12-22T19:49:34.714Z,7.20
2018-12-22T19:52:11.265Z,5.80
2018-12-22T19:54:38.814Z,6.85
2018-12-22T19:57:05.733Z,6.72
2018-12-22T19:59:34.850Z,6.22
2018-12-22T20:02:03.888Z,6.60
2018-12-22T20:04:30.767Z,7.35
2018-12-22T20:06:57.507Z,7.42
2018-12-22T20:09:24.256Z,7.42
2018-12-22T20:11:51.049Z,6.53
2018-12-22T20:14:17.805Z,6.15
2018-12-22T20:16:44.549Z,8.18
2018-12-22T20:19:11.285Z,7.33
2018-12-22T20:21:38.029Z,7.10
2018-12-22T20:24:05.096Z,7.28
2018-12-22T20:26:31.893Z,6.90
2018-12-22T20:28:59.014Z,6.58
2018-12-22T20:31:27.658Z,6.22
2018-12-22T20:33:56.886Z,7.30
2018-12-22T20:36:24.599Z,6.90
2018-12-22T20:38:52.803Z,6.53
2018-12-22T20:41:19.657Z,6.50
2018-12-22T20:43:46.378Z,7.08
2018-12-22T20:46:14.594Z,6.47
2018-12-22T20:48:42.236Z,7.20
2018-12-22T20:51:10.429Z,6.95
2018-12-22T20:53:37.402Z,7.28
2018-12-22T20:56:04.363Z,7.90
2018-12-22T20:58:33.944Z,7.40
2018-12-22T21:01:00.661Z,7.58
2018-12-22T21:03:35.449Z,7.40
2018-12-22T21:06:02.740Z,7.30
2018-12-22T21:08:29.452Z,7.17
2018-12-22T21:10:56.257Z,6.42
2018-12-22T21:13:22.980Z,6.90
2018-12-22T21:15:49.703Z,6.97
2018-12-22T21:18:16.483Z,6.47
2018-12-22T21:20:44.200Z,6.10
2018-12-22T21:23:10.916Z,6.90
2018-12-22T21:25:38.716Z,6.33
2018-12-22T21:28:05.573Z,6.65
2018-12-22T21:30:32.313Z,6.92
2018-12-22T21:32:59.035Z,6.80
2018-12-22T21:35:25.969Z,37.13
2018-12-22T21:37:52.925Z,9.50
2018-12-22T21:40:19.684Z,9.70
2018-12-22T21:42:46.580Z,8.43
2018-12-22T21:45:13.362Z,12.70
2018-12-22T21:47:40.099Z,9.88
2018-12-22T21:50:06.865Z,8.35
2018-12-22T21:52:33.618Z,7.33
2018-12-22T21:55:00.342Z,8.43
2018-12-22T21:57:27.095Z,7.35
2018-12-22T21:59:53.831Z,7.70
2018-12-22T22:02:20.565Z,8.43
2018-12-22T22:04:47.321Z,8.83
2018-12-22T22:07:14.053Z,7.87
2018-12-22T22:09:40.879Z,7.70
2018-12-22T22:12:07.716Z,9.30
2018-12-22T22:14:34.462Z,8.88
2018-12-22T22:17:01.181Z,8.08
2018-12-22T22:19:28.033Z,8.73
2018-12-22T22:21:54.769Z,8.03
2018-12-22T22:24:21.505Z,7.90
2018-12-22T22:26:48.253Z,8.88
2018-12-22T22:29:14.981Z,8.10
2018-12-22T22:31:41.701Z,8.98
2018-12-22T22:34:08.462Z,7.45
2018-12-22T22:36:35.204Z,9.33
2018-12-22T22:39:01.921Z,8.15
2018-12-22T22:41:28.661Z,8.10
2018-12-22T22:43:55.392Z,7.60
2018-12-22T22:46:22.140Z,7.30
2018-12-22T22:48:48.876Z,7.45
2018-12-22T22:51:15.586Z,6.90
2018-12-22T22:53:42.319Z,7.37
2018-12-22T22:56:09.032Z,7.62
2018-12-22T22:58:35.768Z,6.62
2018-12-22T23:01:02.495Z,7.22
2018-12-22T23:03:29.287Z,6.80
2018-12-22T23:05:56.016Z,7.03
2018-12-22T23:08:22.751Z,7.20
2018-12-22T23:10:49.485Z,8.05
2018-12-22T23:13:16.204Z,7.42
2018-12-22T23:15:42.944Z,7.08
2018-12-22T23:18:09.669Z,7.37
2018-12-22T23:20:36.423Z,7.92
2018-12-22T23:23:03.612Z,8.10
2018-12-22T23:25:31.149Z,7.20
2018-12-22T23:27:58.236Z,7.70
2018-12-22T23:30:25.004Z,8.38
2018-12-22T23:32:51.743Z,9.60
2018-12-22T23:35:18.541Z,8.15
2018-12-22T23:37:45.267Z,8.53
2018-12-22T23:40:11.982Z,7.85
2018-12-22T23:42:38.737Z,8.50
2018-12-22T23:45:05.889Z,8.83
2018-12-22T23:47:32.629Z,8.55
2018-12-22T23:49:59.356Z,8.50
2018-12-22T23:52:26.094Z,9.83
2018-12-22T23:54:52.852Z,8.58
2018-12-22T23:57:19.564Z,7.58
2018-12-22T23:59:46.292Z,8.70
